createdAt,value
2022-11-05T00:02:07.525Z,5.22
2022-11-05T00:05:17.625Z,4.90
2022-11-05T00:08:28.267Z,6.10
2022-11-05T00:11:40.106Z,5.32
2022-11-05T00:14:50.247Z,4.72
2022-11-05T00:17:42.303Z,4.40
2022-11-05T00:20:14.322Z,5.00
2022-11-05T00:23:05.118Z,8.85
2022-11-05T00:26:02.786Z,3.88
2022-11-05T00:28:37.291Z,4.95
2022-11-05T00:31:13.397Z,4.68
2022-11-05T00:33:45.455Z,5.10
2022-11-05T00:36:17.420Z,5.38
2022-11-05T00:38:49.390Z,8.48
2022-11-05T00:41:21.331Z,5.00
2022-11-05T00:44:11.632Z,5.50
2022-11-05T00:47:38.469Z,5.68
2022-11-05T00:50:31.081Z,4.20
2022-11-05T00:53:04.121Z,4.88
2022-11-05T00:55:39.311Z,5.25
2022-11-05T00:58:15.650Z,6.07
2022-11-05T01:00:55.284Z,5.05
2022-11-05T01:03:31.857Z,5.95
2022-11-05T01:06:15.621Z,5.32
2022-11-05T01:08:48.245Z,4.55
2022-11-05T01:11:37.302Z,5.80
2022-11-05T01:14:13.809Z,4.93
2022-11-05T01:16:46.822Z,4.65
2022-11-05T01:19:18.766Z,4.55
2022-11-05T01:21:50.707Z,4.28
2022-11-05T01:24:22.670Z,4.35
2022-11-05T01:26:54.596Z,4.72
2022-11-05T01:29:26.493Z,4.90
2022-11-05T01:31:58.521Z,4.65
2022-11-05T01:34:30.512Z,5.18
2022-11-05T01:37:02.619Z,5.60
2022-11-05T01:39:34.702Z,4.80
2022-11-05T01:42:18.935Z,5.50
2022-11-05T01:45:25.232Z,5.03
2022-11-05T01:48:21.391Z,4.68
2022-11-05T01:50:59.718Z,4.90
2022-11-05T01:54:13.642Z,4.25
2022-11-05T01:57:01.607Z,4.45
2022-11-05T01:59:46.029Z,5.05
2022-11-05T02:02:25.116Z,4.60
2022-11-05T02:05:02.119Z,4.90
2022-11-05T02:07:36.948Z,4.00
2022-11-05T02:10:13.686Z,4.35
2022-11-05T02:12:48.476Z,4.60
2022-11-05T02:15:40.325Z,7.35
2022-11-05T02:18:53.065Z,4.30
2022-11-05T02:22:09.153Z,5.15
2022-11-05T02:25:28.478Z,4.15
2022-11-05T02:28:22.919Z,4.72
2022-11-05T02:32:05.414Z,4.15
2022-11-05T02:35:11.909Z,4.00
2022-11-05T02:38:17.833Z,4.80
2022-11-05T02:41:16.757Z,4.28
2022-11-05T02:44:29.057Z,4.82
2022-11-05T02:47:18.435Z,4.80
2022-11-05T02:50:15.959Z,4.22
2022-11-05T02:52:58.418Z,4.55
2022-11-05T02:55:59.463Z,4.85
2022-11-05T02:58:35.881Z,4.80
2022-11-05T03:01:11.375Z,5.38
2022-11-05T03:03:53.468Z,4.47
2022-11-05T03:06:47.645Z,4.70
2022-11-05T03:09:48.408Z,4.60
2022-11-05T03:12:44.857Z,5.05
2022-11-05T03:15:48.749Z,4.90
2022-11-05T03:18:28.090Z,5.30
2022-11-05T03:21:21.752Z,6.05
2022-11-05T03:24:23.656Z,5.40
2022-11-05T03:27:10.567Z,4.38
2022-11-05T03:29:58.227Z,4.85
2022-11-05T03:32:36.394Z,4.93
2022-11-05T03:35:21.173Z,4.97
2022-11-05T03:38:02.286Z,4.72
2022-11-05T03:40:40.678Z,5.57
2022-11-05T03:43:14.494Z,4.75
2022-11-05T03:45:54.897Z,6.25
2022-11-05T03:49:26.071Z,4.78
2022-11-05T03:52:09.443Z,5.03
2022-11-05T03:54:47.049Z,4.80
2022-11-05T03:57:26.738Z,4.97
2022-11-05T04:00:02.198Z,4.97
2022-11-05T04:02:38.609Z,5.03
2022-11-05T04:05:10.952Z,4.55
2022-11-05T04:08:03.041Z,9.63
2022-11-05T04:11:13.061Z,4.97
2022-11-05T04:14:04.808Z,5.38
2022-11-05T04:16:55.077Z,5.60
2022-11-05T04:20:02.207Z,5.78
2022-11-05T04:23:23.988Z,5.90
2022-11-05T04:26:15.670Z,5.80
2022-11-05T04:29:07.947Z,6.03
2022-11-05T04:31:59.768Z,6.50
2022-11-05T04:34:31.636Z,7.72
2022-11-05T04:37:03.460Z,7.30
2022-11-05T04:39:35.338Z,7.82
2022-11-05T04:42:07.151Z,7.55
2022-11-05T04:44:39.079Z,8.10
2022-11-05T04:47:10.968Z,7.72
2022-11-05T04:49:42.841Z,8.13
2022-11-05T04:52:14.775Z,10.35
2022-11-05T04:54:48.590Z,9.27
2022-11-05T04:57:20.481Z,9.90
2022-11-05T04:59:53.888Z,10.77
2022-11-05T05:02:25.984Z,11.68
2022-11-05T05:04:58.436Z,13.00
2022-11-05T05:07:32.885Z,10.43
2022-11-05T05:10:07.206Z,11.32
2022-11-05T05:12:40.022Z,11.82
2022-11-05T05:15:13.314Z,12.55
2022-11-05T05:17:50.652Z,12.43
2022-11-05T05:20:42.029Z,13.80
2022-11-05T05:23:33.741Z,12.60
2022-11-05T05:26:05.810Z,13.68
2022-11-05T05:28:37.709Z,13.68
2022-11-05T05:31:09.811Z,12.50
2022-11-05T05:33:41.912Z,13.05
2022-11-05T05:36:13.884Z,13.63
2022-11-05T05:38:45.801Z,13.50
2022-11-05T05:41:18.159Z,15.07
2022-11-05T05:43:50.661Z,16.20
2022-11-05T05:46:22.626Z,15.05
2022-11-05T05:48:54.721Z,13.48
2022-11-05T05:51:26.820Z,19.27
2022-11-05T05:53:58.883Z,15.55
2022-11-05T05:56:30.792Z,16.67
2022-11-05T05:59:02.760Z,15.30
2022-11-05T06:01:36.255Z,17.35
2022-11-05T06:04:09.795Z,15.88
2022-11-05T06:06:41.749Z,16.50
2022-11-05T06:09:17.437Z,18.58
2022-11-05T06:11:49.371Z,17.25
2022-11-05T06:14:21.493Z,17.13
2022-11-05T06:16:53.546Z,17.02
2022-11-05T06:19:25.553Z,17.85
2022-11-05T06:21:57.873Z,22.75
2022-11-05T06:24:30.166Z,18.35
2022-11-05T06:27:02.137Z,20.88
2022-11-05T06:29:34.206Z,19.73
2022-11-05T06:32:06.093Z,21.50
2022-11-05T06:34:38.054Z,20.77
2022-11-05T06:37:09.979Z,18.85
2022-11-05T06:39:41.899Z,18.42
2022-11-05T06:42:18.657Z,25.33
2022-11-05T06:44:52.160Z,18.48
2022-11-05T06:47:24.200Z,22.30
2022-11-05T06:49:57.350Z,25.35
2022-11-05T06:52:31.231Z,18.95
2022-11-05T06:55:03.651Z,18.40
2022-11-05T06:57:38.177Z,19.13
2022-11-05T07:00:10.906Z,18.95
2022-11-05T07:02:43.627Z,19.98
2022-11-05T07:05:16.868Z,20.58
2022-11-05T07:07:48.901Z,26.02
2022-11-05T07:10:24.085Z,22.85
2022-11-05T07:12:56.030Z,21.30
2022-11-05T07:15:28.182Z,17.77
2022-11-05T07:18:01.672Z,23.88
2022-11-05T07:20:34.795Z,23.85
2022-11-05T07:23:11.277Z,19.58
2022-11-05T07:25:44.617Z,18.08
2022-11-05T07:28:16.646Z,21.08
2022-11-05T07:30:48.805Z,21.15
2022-11-05T07:33:20.984Z,22.00
2022-11-05T07:35:55.559Z,22.95
2022-11-05T07:38:28.062Z,20.00
2022-11-05T07:41:00.564Z,30.60
2022-11-05T07:43:32.620Z,20.77
2022-11-05T07:46:05.971Z,20.40
2022-11-05T07:48:40.960Z,21.60
2022-11-05T07:51:13.075Z,21.35
2022-11-05T07:53:45.602Z,20.35
2022-11-05T07:56:19.275Z,21.50
2022-11-05T07:58:51.528Z,20.33
2022-11-05T08:01:23.636Z,18.80
2022-11-05T08:03:56.095Z,19.60
2022-11-05T08:06:28.075Z,16.98
2022-11-05T08:08:59.951Z,16.17
2022-11-05T08:11:32.257Z,13.07
2022-11-05T08:14:06.084Z,14.38
2022-11-05T08:16:38.198Z,17.85
2022-11-05T08:19:10.336Z,10.65
2022-11-05T08:21:42.614Z,16.95
2022-11-05T08:24:14.594Z,9.57
2022-11-05T08:26:46.532Z,9.30
2022-11-05T08:29:18.411Z,8.95
2022-11-05T08:31:50.390Z,8.60
2022-11-05T08:34:22.659Z,9.18
2022-11-05T08:36:54.744Z,7.40
2022-11-05T08:39:26.746Z,8.07
2022-11-05T08:41:58.925Z,7.05
2022-11-05T08:44:30.876Z,6.78
2022-11-05T08:47:02.794Z,6.97
2022-11-05T08:49:34.809Z,8.00
2022-11-05T08:52:06.874Z,6.57
2022-11-05T08:54:38.877Z,7.65
2022-11-05T08:57:10.920Z,7.57
2022-11-05T08:59:42.882Z,6.47
2022-11-05T09:02:14.978Z,8.82
2022-11-05T09:04:51.520Z,8.88
2022-11-05T09:07:23.627Z,7.22
2022-11-05T09:09:55.853Z,6.93
2022-11-05T09:12:40.023Z,7.07
2022-11-05T09:15:12.341Z,8.75
2022-11-05T09:17:44.355Z,9.25
2022-11-05T09:20:16.494Z,12.80
2022-11-05T09:22:48.850Z,9.48
2022-11-05T09:25:21.443Z,10.18
2022-11-05T09:27:53.567Z,14.02
2022-11-05T09:30:56.423Z,11.20
2022-11-05T09:33:43.724Z,11.68
2022-11-05T09:36:16.261Z,11.50
2022-11-05T09:39:13.143Z,12.95
2022-11-05T09:41:46.959Z,11.35
2022-11-05T09:44:28.340Z,11.30
2022-11-05T09:47:32.830Z,10.85
2022-11-05T09:50:27.116Z,16.25
2022-11-05T09:53:18.936Z,13.55
2022-11-05T09:55:58.745Z,13.35
2022-11-05T09:59:00.391Z,13.98
2022-11-05T10:01:37.875Z,18.23
2022-11-05T10:04:19.674Z,17.52
2022-11-05T10:06:59.789Z,14.85
2022-11-05T10:09:48.046Z,14.25
2022-11-05T10:12:44.858Z,14.45
2022-11-05T10:15:37.137Z,14.15
2022-11-05T10:18:21.708Z,14.60
2022-11-05T10:20:59.144Z,14.60
2022-11-05T10:23:32.983Z,12.50
2022-11-05T10:26:10.329Z,13.48
2022-11-05T10:28:44.957Z,15.35
2022-11-05T10:31:21.163Z,12.70
2022-11-05T10:34:00.294Z,12.70
2022-11-05T10:36:37.839Z,12.93
2022-11-05T10:39:17.459Z,11.10
2022-11-05T10:42:18.161Z,13.30
2022-11-05T10:45:21.825Z,11.50
2022-11-05T10:48:43.619Z,12.23
2022-11-05T10:51:25.992Z,12.77
2022-11-05T10:54:03.685Z,11.60
2022-11-05T10:56:44.819Z,10.25
2022-11-05T10:59:27.667Z,13.70
2022-11-05T11:02:30.318Z,11.02
2022-11-05T11:05:02.521Z,10.57
2022-11-05T11:07:36.193Z,11.75
2022-11-05T11:10:21.470Z,14.18
2022-11-05T11:12:56.282Z,11.68
2022-11-05T11:15:32.827Z,12.10
2022-11-05T11:18:40.333Z,11.80
2022-11-05T11:21:19.625Z,11.07
2022-11-05T11:24:00.446Z,13.38
2022-11-05T11:26:40.934Z,13.38
2022-11-05T11:29:23.108Z,11.13
2022-11-05T11:31:58.835Z,12.60
2022-11-05T11:34:35.768Z,12.90
2022-11-05T11:37:19.376Z,11.77
2022-11-05T11:40:01.618Z,11.25
2022-11-05T11:42:51.015Z,11.68
2022-11-05T11:45:37.241Z,13.98
2022-11-05T11:48:24.995Z,11.10
2022-11-05T11:51:14.616Z,10.52
2022-11-05T11:53:50.389Z,11.60
2022-11-05T11:56:27.282Z,10.30
2022-11-05T11:59:40.471Z,10.40
2022-11-05T12:02:18.707Z,10.00
2022-11-05T12:05:19.651Z,10.38
2022-11-05T12:08:30.474Z,9.95
2022-11-05T12:11:58.600Z,9.55
2022-11-05T12:14:47.946Z,10.48
2022-11-05T12:18:02.469Z,9.80
2022-11-05T12:20:57.817Z,11.38
2022-11-05T12:24:22.476Z,9.15
2022-11-05T12:27:55.730Z,10.30
2022-11-05T12:31:05.336Z,7.78
2022-11-05T12:34:12.004Z,8.00
2022-11-05T12:37:09.885Z,6.30
2022-11-05T12:40:14.612Z,8.32
2022-11-05T12:43:24.946Z,7.00
2022-11-05T12:46:42.103Z,7.97
2022-11-05T12:49:49.029Z,27.63
2022-11-05T12:53:01.749Z,35.80
2022-11-05T12:55:52.804Z,7.22
2022-11-05T12:58:40.330Z,6.40
2022-11-05T13:01:27.123Z,6.57
2022-11-05T13:04:15.490Z,17.40
2022-11-05T13:07:05.620Z,5.75
2022-11-05T13:10:20.607Z,6.07
2022-11-05T13:13:23.452Z,5.07
2022-11-05T13:16:37.631Z,5.13
2022-11-05T13:19:50.313Z,5.78
2022-11-05T13:22:40.254Z,11.88
2022-11-05T13:25:21.603Z,14.63
2022-11-05T13:28:21.532Z,35.15
2022-11-05T13:31:18.685Z,4.68
2022-11-05T13:33:55.550Z,3.85
2022-11-05T13:37:20.432Z,8.43
2022-11-05T13:40:15.991Z,5.47
2022-11-05T13:43:17.673Z,4.60
2022-11-05T13:46:28.088Z,4.25
2022-11-05T13:49:57.116Z,5.05
2022-11-05T13:53:23.438Z,6.88
2022-11-05T13:56:47.993Z,5.32
2022-11-05T14:00:16.592Z,12.77
2022-11-05T14:02:54.019Z,6.45
2022-11-05T14:05:38.718Z,5.85
2022-11-05T14:08:18.612Z,5.60
2022-11-05T14:11:05.331Z,7.20
2022-11-05T14:14:05.311Z,6.07
2022-11-05T14:16:54.986Z,7.32
2022-11-05T14:20:06.945Z,5.93
2022-11-05T14:23:18.073Z,5.68
2022-11-05T14:26:28.632Z,8.35
2022-11-05T14:29:04.626Z,5.40
2022-11-05T14:32:08.307Z,12.45
2022-11-05T14:35:04.366Z,6.20
2022-11-05T14:37:57.724Z,6.57
2022-11-05T14:40:44.528Z,6.45
2022-11-05T14:43:25.576Z,5.82
2022-11-05T14:46:06.447Z,6.50
2022-11-05T14:48:50.342Z,6.70
2022-11-05T14:51:25.594Z,6.85
2022-11-05T14:54:08.332Z,6.45
2022-11-05T14:57:02.762Z,6.97
2022-11-05T14:59:52.263Z,11.05
2022-11-05T15:02:36.451Z,6.22
2022-11-05T15:05:31.272Z,10.35
2022-11-05T15:08:31.220Z,7.72
2022-11-05T15:11:17.929Z,7.63
2022-11-05T15:13:56.136Z,8.20
2022-11-05T15:16:54.345Z,8.50
2022-11-05T15:19:37.090Z,7.38
2022-11-05T15:22:43.604Z,6.97
2022-11-05T15:25:40.699Z,8.18
2022-11-05T15:28:52.809Z,7.80
2022-11-05T15:31:37.697Z,8.32
2022-11-05T15:34:26.842Z,8.02
2022-11-05T15:37:20.862Z,7.65
2022-11-05T15:39:55.964Z,8.25
2022-11-05T15:42:28.174Z,9.20
2022-11-05T15:45:00.792Z,10.23
2022-11-05T15:47:36.481Z,7.32
2022-11-05T15:50:16.361Z,6.60
2022-11-05T15:52:54.523Z,7.75
2022-11-05T15:55:26.940Z,6.80
2022-11-05T15:58:03.825Z,9.20
2022-11-05T16:00:38.081Z,10.05
2022-11-05T16:03:32.184Z,6.53
2022-11-05T16:06:09.510Z,7.20
2022-11-05T16:08:48.467Z,8.57
2022-11-05T16:11:26.420Z,6.30
2022-11-05T16:14:17.501Z,7.38
2022-11-05T16:16:50.575Z,6.20
2022-11-05T16:19:40.257Z,6.53
2022-11-05T16:22:13.121Z,7.70
2022-11-05T16:24:47.477Z,6.28
2022-11-05T16:27:22.168Z,6.18
2022-11-05T16:29:57.286Z,7.85
2022-11-05T16:32:31.689Z,6.75
2022-11-05T16:35:06.576Z,6.47
2022-11-05T16:37:52.270Z,6.57
2022-11-05T16:40:26.165Z,5.32
2022-11-05T16:43:19.590Z,6.18
2022-11-05T16:45:58.204Z,7.40
2022-11-05T16:48:31.279Z,8.00
2022-11-05T16:51:03.395Z,8.98
2022-11-05T16:53:35.971Z,9.65
2022-11-05T16:56:18.310Z,7.82
2022-11-05T16:58:51.839Z,7.47
2022-11-05T17:01:25.136Z,9.23
2022-11-05T17:04:01.264Z,11.05
2022-11-05T17:06:33.354Z,9.18
2022-11-05T17:09:05.471Z,21.30
2022-11-05T17:11:37.683Z,46.58
2022-11-05T17:14:13.378Z,28.92
2022-11-05T17:16:46.056Z,18.17
2022-11-05T17:19:18.982Z,15.07
2022-11-05T17:21:51.226Z,9.38
2022-11-05T17:24:23.905Z,9.85
2022-11-05T17:26:55.954Z,16.35
2022-11-05T17:29:29.413Z,12.13
2022-11-05T17:32:01.425Z,9.38
2022-11-05T17:34:36.108Z,9.23
2022-11-05T17:37:16.782Z,11.60
2022-11-05T17:39:52.100Z,9.18
2022-11-05T17:42:24.482Z,8.55
2022-11-05T17:44:57.072Z,9.00
2022-11-05T17:47:30.018Z,9.82
2022-11-05T17:50:14.792Z,10.82
2022-11-05T17:52:48.239Z,11.35
2022-11-05T17:55:21.121Z,8.35
2022-11-05T17:57:53.940Z,9.68
2022-11-05T18:00:27.086Z,13.90
2022-11-05T18:02:59.419Z,12.98
2022-11-05T18:05:32.139Z,12.82
2022-11-05T18:08:06.150Z,11.85
2022-11-05T18:10:40.937Z,12.48
2022-11-05T18:13:14.247Z,19.92
2022-11-05T18:15:46.906Z,15.27
2022-11-05T18:18:23.419Z,16.77
2022-11-05T18:20:59.742Z,16.02
2022-11-05T18:23:33.192Z,11.93
2022-11-05T18:26:13.036Z,12.75
2022-11-05T18:28:46.725Z,12.90
2022-11-05T18:31:20.960Z,11.82
2022-11-05T18:33:57.386Z,11.88
2022-11-05T18:36:33.841Z,11.32
2022-11-05T18:39:08.503Z,16.40
2022-11-05T18:41:41.044Z,10.90
2022-11-05T18:44:15.150Z,11.30
2022-11-05T18:47:03.173Z,10.15
2022-11-05T18:49:39.213Z,10.15
2022-11-05T18:52:14.531Z,10.38
2022-11-05T18:54:47.160Z,12.63
2022-11-05T18:57:27.040Z,14.55
2022-11-05T18:59:59.507Z,11.57
2022-11-05T19:02:31.916Z,35.60
2022-11-05T19:08:05.071Z,35.13
2022-11-05T19:10:40.842Z,23.23
2022-11-05T19:13:16.481Z,25.20
2022-11-05T19:15:52.012Z,14.35
2022-11-05T19:18:24.643Z,13.00
2022-11-05T19:20:59.120Z,14.30
2022-11-05T19:23:53.814Z,13.38
2022-11-05T19:26:34.959Z,13.95
2022-11-05T19:29:07.846Z,12.35
2022-11-05T19:31:43.670Z,9.73
2022-11-05T19:34:18.388Z,10.88
2022-11-05T19:36:54.123Z,10.55
2022-11-05T19:39:26.369Z,10.35
2022-11-05T19:42:03.530Z,11.40
2022-11-05T19:44:36.838Z,11.52
2022-11-05T19:47:09.358Z,11.00
2022-11-05T19:49:44.681Z,10.10
2022-11-05T19:52:17.199Z,13.27
2022-11-05T19:54:49.440Z,9.50
2022-11-05T19:57:22.260Z,8.23
2022-11-05T19:59:54.975Z,8.95
2022-11-05T20:02:27.656Z,8.10
2022-11-05T20:05:18.573Z,9.25
2022-11-05T20:07:53.253Z,11.23
2022-11-05T20:10:27.983Z,12.00
2022-11-05T20:13:06.705Z,9.85
2022-11-05T20:15:40.246Z,8.57
2022-11-05T20:18:16.662Z,9.25
2022-11-05T20:20:49.425Z,8.20
2022-11-05T20:23:39.256Z,8.82
2022-11-05T20:26:13.098Z,9.98
2022-11-05T20:28:46.060Z,10.73
2022-11-05T20:31:19.130Z,11.05
2022-11-05T20:33:53.535Z,10.45
2022-11-05T20:36:28.749Z,9.10
2022-11-05T20:39:04.123Z,10.07
2022-11-05T20:41:40.051Z,9.77
2022-11-05T20:44:12.576Z,11.38
2022-11-05T20:46:44.772Z,14.63
2022-11-05T20:49:21.273Z,13.00
2022-11-05T20:51:56.643Z,16.48
2022-11-05T20:54:28.861Z,14.27
2022-11-05T20:57:01.551Z,13.40
2022-11-05T20:59:33.783Z,14.95
2022-11-05T21:02:05.870Z,16.60
2022-11-05T21:04:43.013Z,17.98
2022-11-05T21:07:15.404Z,16.77
2022-11-05T21:09:47.690Z,17.35
2022-11-05T21:12:21.896Z,16.45
2022-11-05T21:14:54.674Z,16.30
2022-11-05T21:17:27.738Z,20.80
2022-11-05T21:20:00.559Z,17.77
2022-11-05T21:22:33.219Z,19.73
2022-11-05T21:25:06.511Z,19.25
2022-11-05T21:27:43.586Z,15.18
2022-11-05T21:30:17.429Z,14.65
2022-11-05T21:32:50.065Z,14.50
2022-11-05T21:36:13.814Z,14.65
2022-11-05T21:38:46.026Z,16.05
2022-11-05T21:41:18.156Z,14.25
2022-11-05T21:43:50.334Z,18.58
2022-11-05T21:46:22.720Z,14.98
2022-11-05T21:48:55.124Z,16.13
2022-11-05T21:51:46.724Z,19.60
2022-11-05T21:54:56.892Z,33.95
2022-11-05T21:58:07.093Z,24.85
2022-11-05T22:01:03.157Z,22.00
2022-11-05T22:03:35.968Z,15.75
2022-11-05T22:06:08.431Z,14.05
2022-11-05T22:08:41.061Z,14.50
2022-11-05T22:11:13.946Z,12.80
2022-11-05T22:13:46.147Z,13.63
2022-11-05T22:16:18.432Z,16.88
2022-11-05T22:18:50.904Z,15.75
2022-11-05T22:21:27.201Z,14.25
2022-11-05T22:23:59.319Z,20.75
2022-11-05T22:26:31.581Z,19.13
2022-11-05T22:29:04.928Z,17.80
2022-11-05T22:31:37.389Z,15.77
2022-11-05T22:34:10.630Z,17.05
2022-11-05T22:36:42.725Z,13.90
2022-11-05T22:39:15.160Z,14.80
2022-11-05T22:41:48.144Z,13.75
2022-11-05T22:44:20.794Z,13.15
2022-11-05T22:46:54.678Z,13.30
2022-11-05T22:49:26.912Z,14.13
2022-11-05T22:51:59.546Z,12.13
2022-11-05T22:54:37.944Z,18.88
2022-11-05T22:57:11.699Z,28.15
2022-11-05T22:59:43.980Z,15.90
2022-11-05T23:02:16.384Z,14.85
2022-11-05T23:04:49.546Z,13.30
2022-11-05T23:07:40.997Z,14.15
2022-11-05T23:10:50.988Z,12.57
2022-11-05T23:13:42.903Z,16.33
2022-11-05T23:16:33.387Z,14.15
2022-11-05T23:19:44.198Z,17.77
2022-11-05T23:22:54.219Z,14.95
2022-11-05T23:25:46.318Z,15.75
2022-11-05T23:28:21.727Z,24.20
2022-11-05T23:31:12.836Z,12.43
2022-11-05T23:34:04.643Z,13.07
2022-11-05T23:36:55.278Z,14.73
2022-11-05T23:39:47.091Z,15.85
2022-11-05T23:42:37.429Z,13.10
2022-11-05T23:45:59.534Z,12.95
2022-11-05T23:48:52.829Z,12.50
2022-11-05T23:51:24.840Z,12.93
2022-11-05T23:53:57.308Z,12.10
2022-11-05T23:56:31.282Z,12.20
2022-11-05T23:59:04.727Z,11.68
